Time;durP1;ratioP1;P1;durP2;ratioP2;P2;SDS_P1;SDS_P2;PMS_P1;PMS_P2;Temp;Humidity;BMP_temperature;BMP_pressure;BME280_temperature;BME280_humidity;BME280_pressure;Samples;Min_cycle;Max_cycle;Signal;HPM_P1;HPM_P2
2023/03/11 00:01:29;;;;;;;16.05;13.55;;;5.10;99.90;;;;;;5052803;28;20568;-74
2023/03/11 00:03:56;;;;;;;16.77;13.43;;;5.10;99.90;;;;;;5039462;28;20562;-73
2023/03/11 00:06:27;;;;;;;16.88;14.18;;;5.20;99.90;;;;;;5052111;28;20239;-73
2023/03/11 00:08:57;;;;;;;16.70;14.38;;;5.20;99.90;;;;;;5048174;28;20225;-73
2023/03/11 00:11:28;;;;;;;20.95;14.95;;;5.20;99.90;;;;;;5039723;28;20227;-75
2023/03/11 00:13:59;;;;;;;15.23;13.48;;;5.20;99.90;;;;;;5052723;28;20312;-75
2023/03/11 00:16:31;;;;;;;14.93;12.55;;;5.10;99.90;;;;;;5053065;28;20224;-75
2023/03/11 00:19:05;;;;;;;14.15;12.63;;;5.10;99.90;;;;;;5050303;28;20286;-75
2023/03/11 00:21:32;;;;;;;15.15;13.55;;;5.10;99.90;;;;;;5043355;28;20221;-75
2023/03/11 00:24:02;;;;;;;18.23;13.57;;;5.10;99.90;;;;;;5049987;28;20623;-73
2023/03/11 00:26:30;;;;;;;12.45;10.70;;;5.10;99.90;;;;;;5050973;28;20221;-76
2023/03/11 00:28:58;;;;;;;16.75;13.55;;;5.00;99.90;;;;;;5052234;28;20692;-74
2023/03/11 00:31:26;;;;;;;13.00;11.57;;;5.00;99.90;;;;;;5055280;28;20223;-74
2023/03/11 00:33:53;;;;;;;13.25;11.95;;;5.00;99.90;;;;;;5054165;28;20255;-74
2023/03/11 00:36:24;;;;;;;11.85;10.65;;;4.90;99.90;;;;;;5054859;28;20736;-75
2023/03/11 00:38:51;;;;;;;13.30;10.50;;;4.90;99.90;;;;;;5044097;28;20673;-75
2023/03/11 00:41:18;;;;;;;13.45;11.60;;;4.80;99.90;;;;;;5062675;28;20326;-75
2023/03/11 00:43:45;;;;;;;12.65;11.10;;;4.80;99.90;;;;;;5059532;28;20224;-74
2023/03/11 00:46:15;;;;;;;12.60;11.02;;;4.80;99.90;;;;;;5057470;28;20221;-74
2023/03/11 00:48:42;;;;;;;11.93;10.82;;;4.80;99.90;;;;;;5057162;28;20628;-74
2023/03/11 00:51:13;;;;;;;13.13;11.85;;;4.80;99.90;;;;;;5055578;28;20258;-76
2023/03/11 00:53:40;;;;;;;11.10;9.98;;;4.70;99.90;;;;;;5057357;28;20247;-74
2023/03/11 00:56:08;;;;;;;14.60;12.70;;;4.70;99.90;;;;;;5061172;28;20224;-76
2023/03/11 00:58:35;;;;;;;13.75;12.07;;;4.70;99.90;;;;;;5060740;28;20312;-74
2023/03/11 01:01:07;;;;;;;14.30;12.82;;;4.60;99.90;;;;;;5044402;28;20232;-75
2023/03/11 01:03:35;;;;;;;13.70;12.30;;;4.60;99.90;;;;;;5059192;28;20294;-76
2023/03/11 01:06:03;;;;;;;14.30;12.50;;;4.60;99.90;;;;;;5059835;28;20682;-75
2023/03/11 01:08:30;;;;;;;14.45;12.18;;;4.50;99.90;;;;;;5055758;28;20233;-76
2023/03/11 01:10:57;;;;;;;15.25;13.25;;;4.50;99.90;;;;;;5055342;28;20569;-75
2023/03/11 01:13:25;;;;;;;15.88;12.85;;;4.50;99.90;;;;;;5058145;28;20236;-76
2023/03/11 01:15:53;;;;;;;15.20;13.00;;;4.40;99.90;;;;;;5062619;28;20252;-75
2023/03/11 01:18:20;;;;;;;15.65;13.98;;;4.40;99.90;;;;;;5059161;28;20224;-75
2023/03/11 01:20:51;;;;;;;15.15;13.07;;;4.40;99.90;;;;;;5061655;28;20225;-76
2023/03/11 01:23:19;;;;;;;15.85;14.23;;;4.40;99.90;;;;;;5063139;28;20216;-75
2023/03/11 01:25:46;;;;;;;13.98;12.50;;;4.40;99.90;;;;;;5061288;28;20233;-76
2023/03/11 01:28:13;;;;;;;14.13;12.63;;;4.40;99.90;;;;;;5061243;28;20266;-75
2023/03/11 01:30:42;;;;;;;14.00;12.68;;;4.30;99.90;;;;;;5061262;28;20225;-77
2023/03/11 01:33:17;;;;;;;15.57;12.82;;;4.30;99.90;;;;;;5060888;28;20317;-74
2023/03/11 01:35:45;;;;;;;13.65;12.23;;;4.30;99.90;;;;;;5060863;28;20277;-75
2023/03/11 01:38:14;;;;;;;13.40;12.00;;;4.20;99.90;;;;;;5061262;28;20311;-77
2023/03/11 01:40:43;;;;;;;12.73;11.25;;;4.20;99.90;;;;;;5050656;28;20217;-74
2023/03/11 01:43:47;;;;;;;12.10;10.20;;;4.20;99.90;;;;;;5053155;28;20224;-74
2023/03/11 01:46:17;;;;;;;10.20;9.18;;;4.20;99.90;;;;;;5042163;28;20249;-74
2023/03/11 01:48:47;;;;;;;11.25;10.15;;;4.20;99.90;;;;;;5055317;28;20249;-74
2023/03/11 01:51:17;;;;;;;10.05;8.45;;;4.20;99.90;;;;;;5054460;28;20239;-75
2023/03/11 01:53:46;;;;;;;7.53;6.68;;;4.20;99.90;;;;;;5055163;28;20561;-77
2023/03/11 01:56:14;;;;;;;6.03;5.43;;;4.30;99.90;;;;;;5046582;28;20217;-74
2023/03/11 01:59:06;;;;;;;5.25;4.75;;;4.30;99.90;;;;;;5053734;28;20233;-76
2023/03/11 02:01:34;;;;;;;4.65;4.25;;;4.30;99.90;;;;;;5052034;28;20233;-77
2023/03/11 02:04:03;;;;;;;4.05;3.50;;;4.20;99.90;;;;;;5068410;28;20224;-76
2023/03/11 02:06:34;;;;;;;4.05;3.65;;;4.20;99.90;;;;;;5071936;28;20225;-75
2023/03/11 02:09:02;;;;;;;3.53;3.22;;;4.20;99.90;;;;;;5060663;28;20240;-74
2023/03/11 02:11:31;;;;;;;8.00;5.28;;;4.30;99.90;;;;;;5049220;28;20233;-76
2023/03/11 02:14:01;;;;;;;3.22;2.95;;;4.20;99.90;;;;;;5069270;28;20228;-76
2023/03/11 02:16:28;;;;;;;3.55;3.25;;;4.20;99.90;;;;;;5066135;28;20278;-72
2023/03/11 02:18:57;;;;;;;3.53;3.22;;;4.20;99.90;;;;;;5068636;28;20744;-76
2023/03/11 02:21:26;;;;;;;3.10;2.75;;;4.30;99.90;;;;;;5048372;28;20228;-78
2023/03/11 02:24:02;;;;;;;2.83;2.63;;;4.30;99.90;;;;;;5065364;28;20220;-75
2023/03/11 02:26:36;;;;;;;2.63;2.42;;;4.20;99.90;;;;;;5069134;28;20282;-76
2023/03/11 02:29:06;;;;;;;4.57;3.67;;;4.30;99.90;;;;;;5066027;28;20603;-77
2023/03/11 02:31:35;;;;;;;2.25;2.05;;;4.20;99.90;;;;;;5064113;28;20229;-75
2023/03/11 02:34:03;;;;;;;2.60;2.40;;;4.20;99.90;;;;;;5052979;28;20230;-75
2023/03/11 02:36:34;;;;;;;4.00;3.60;;;4.20;99.90;;;;;;5066474;28;20696;-74
2023/03/11 02:39:01;;;;;;;3.92;3.55;;;4.10;99.90;;;;;;5064427;28;20670;-72
2023/03/11 02:41:30;;;;;;;3.20;2.88;;;4.10;99.90;;;;;;5063934;28;20284;-73
2023/03/11 02:43:58;;;;;;;4.05;3.70;;;4.10;99.90;;;;;;5063200;28;20224;-72
2023/03/11 02:46:27;;;;;;;7.18;5.90;;;4.20;99.90;;;;;;5064173;28;20239;-74
2023/03/11 02:49:06;;;;;;;3.08;2.38;;;4.20;99.90;;;;;;5063798;28;20245;-75
2023/03/11 02:51:33;;;;;;;2.55;2.35;;;4.20;99.90;;;;;;5058492;28;20232;-73
2023/03/11 02:54:04;;;;;;;2.83;2.60;;;4.20;99.90;;;;;;5057371;28;20217;-73
2023/03/11 02:56:31;;;;;;;1.98;1.88;;;4.30;99.90;;;;;;5062541;28;20259;-74
2023/03/11 02:58:59;;;;;;;10.70;6.82;;;4.30;99.90;;;;;;5064750;28;20286;-73
2023/03/11 03:01:27;;;;;;;8.98;6.47;;;4.20;99.90;;;;;;5045435;28;20267;-76
2023/03/11 03:04:05;;;;;;;4.93;4.45;;;4.30;99.90;;;;;;5045645;28;20231;-76
2023/03/11 03:06:32;;;;;;;2.72;2.53;;;4.20;99.90;;;;;;5054210;28;20295;-74
2023/03/11 03:08:59;;;;;;;5.75;5.18;;;4.20;99.90;;;;;;5053584;28;20299;-76
2023/03/11 03:11:26;;;;;;;4.63;4.00;;;4.20;99.90;;;;;;5053811;28;20224;-74
2023/03/11 03:13:56;;;;;;;4.30;3.45;;;4.20;99.90;;;;;;5054726;28;20303;-76
2023/03/11 03:16:23;;;;;;;4.93;4.43;;;4.20;99.90;;;;;;5054567;28;20315;-74
2023/03/11 03:18:52;;;;;;;16.83;14.07;;;4.20;99.90;;;;;;5056405;28;20220;-76
2023/03/11 03:21:19;;;;;;;3.65;3.35;;;4.20;99.90;;;;;;5053871;28;20244;-76
2023/03/11 03:23:46;;;;;;;5.05;4.32;;;4.30;99.90;;;;;;5053492;28;20225;-74
2023/03/11 03:26:14;;;;;;;4.45;4.05;;;4.30;99.90;;;;;;5052282;28;20220;-74
2023/03/11 03:28:41;;;;;;;3.22;2.92;;;4.30;99.90;;;;;;5052135;28;20239;-74
2023/03/11 03:31:10;;;;;;;4.95;3.88;;;4.30;99.90;;;;;;5051053;28;20216;-74
2023/03/11 03:33:37;;;;;;;5.45;4.60;;;4.30;99.90;;;;;;5052874;28;20666;-74
2023/03/11 03:36:09;;;;;;;9.45;6.75;;;4.30;99.90;;;;;;5055054;28;20224;-73
2023/03/11 03:38:36;;;;;;;5.65;5.15;;;4.30;99.90;;;;;;5052851;28;20666;-76
2023/03/11 03:41:05;;;;;;;21.20;14.27;;;4.30;99.90;;;;;;5053425;28;20239;-74
2023/03/11 03:43:32;;;;;;;15.75;11.85;;;4.30;99.90;;;;;;5052739;28;20299;-77
2023/03/11 03:46:04;;;;;;;8.27;6.35;;;4.30;99.90;;;;;;5031984;28;20235;-76
2023/03/11 03:48:31;;;;;;;9.40;6.97;;;4.30;99.90;;;;;;5051601;28;20248;-74
2023/03/11 03:51:04;;;;;;;8.57;6.53;;;4.40;99.90;;;;;;5045735;28;20208;-75
2023/03/11 03:53:34;;;;;;;5.63;4.47;;;4.40;99.90;;;;;;5052989;28;20593;-76
2023/03/11 03:56:03;;;;;;;5.00;4.47;;;4.40;99.90;;;;;;5052759;28;20634;-75
2023/03/11 03:58:31;;;;;;;7.68;6.47;;;4.40;99.90;;;;;;5052862;28;20227;-77
2023/03/11 04:00:59;;;;;;;4.78;4.38;;;4.40;99.90;;;;;;5052382;28;20228;-77
2023/03/11 04:03:31;;;;;;;6.88;5.07;;;4.40;99.90;;;;;;5052227;28;20240;-75
2023/03/11 04:06:07;;;;;;;4.95;4.45;;;4.40;99.90;;;;;;5051597;28;20237;-74
2023/03/11 04:08:35;;;;;;;4.85;4.45;;;4.40;99.90;;;;;;5051940;28;20228;-74
2023/03/11 04:11:03;;;;;;;4.70;4.30;;;4.30;99.90;;;;;;5051705;28;20232;-74
2023/03/11 04:13:30;;;;;;;5.50;5.00;;;4.30;99.90;;;;;;5051795;28;20282;-74
2023/03/11 04:15:57;;;;;;;6.72;5.95;;;4.30;99.90;;;;;;5051711;28;20231;-76
2023/03/11 04:18:24;;;;;;;4.75;4.32;;;4.30;99.90;;;;;;5052356;28;20228;-75
2023/03/11 04:20:51;;;;;;;10.68;9.52;;;4.30;99.90;;;;;;5051525;28;20228;-74
2023/03/11 04:23:18;;;;;;;5.97;5.03;;;4.30;99.90;;;;;;5052134;28;20285;-74
2023/03/11 04:25:46;;;;;;;31.20;24.40;;;4.20;99.90;;;;;;5052009;28;20278;-75
2023/03/11 04:28:14;;;;;;;6.47;5.88;;;4.20;99.90;;;;;;5052061;28;20308;-76
2023/03/11 04:30:43;;;;;;;7.05;5.40;;;4.20;99.90;;;;;;5051691;28;20221;-74
2023/03/11 04:33:10;;;;;;;4.35;3.95;;;4.20;99.90;;;;;;5051890;28;20320;-74
2023/03/11 04:35:38;;;;;;;5.50;5.00;;;4.20;99.90;;;;;;5051947;28;20293;-73
2023/03/11 04:38:06;;;;;;;5.63;5.13;;;4.10;99.90;;;;;;5049496;28;20911;-75
2023/03/11 04:40:34;;;;;;;5.13;4.72;;;4.10;99.90;;;;;;5049781;28;20221;-73
2023/03/11 04:43:02;;;;;;;4.07;3.67;;;4.10;99.90;;;;;;5049273;28;20228;-75
2023/03/11 04:45:29;;;;;;;6.60;6.00;;;4.10;99.90;;;;;;5051210;28;20678;-73
2023/03/11 04:47:56;;;;;;;4.30;3.90;;;4.10;99.90;;;;;;5050286;28;20228;-75
2023/03/11 04:50:24;;;;;;;3.58;3.28;;;4.10;99.90;;;;;;5050688;28;20313;-73
2023/03/11 04:52:51;;;;;;;7.82;5.47;;;4.10;99.90;;;;;;5039671;28;20232;-75
2023/03/11 04:55:19;;;;;;;12.57;10.25;;;4.10;99.90;;;;;;5052658;28;20350;-73
2023/03/11 04:57:46;;;;;;;4.50;4.10;;;4.10;99.90;;;;;;5051550;28;20228;-74
2023/03/11 05:00:18;;;;;;;5.50;5.05;;;4.10;99.90;;;;;;5052136;28;20549;-74
2023/03/11 05:02:46;;;;;;;5.03;4.28;;;4.10;99.90;;;;;;5051542;28;20228;-75
2023/03/11 05:05:13;;;;;;;5.10;3.95;;;4.10;99.90;;;;;;5052229;28;20253;-74
2023/03/11 05:07:40;;;;;;;4.50;4.10;;;4.10;99.90;;;;;;5051964;28;20229;-74
2023/03/11 05:10:14;;;;;;;6.80;5.82;;;4.10;99.90;;;;;;5051307;28;20227;-74
2023/03/11 05:12:41;;;;;;;5.75;5.15;;;4.10;99.90;;;;;;5041102;28;20236;-74
2023/03/11 05:15:09;;;;;;;6.80;5.13;;;4.10;99.90;;;;;;5052137;28;20676;-76
2023/03/11 05:17:37;;;;;;;5.00;4.50;;;4.10;99.90;;;;;;5056028;28;20744;-76
2023/03/11 05:20:06;;;;;;;5.30;3.72;;;4.10;99.90;;;;;;5054611;28;20327;-77
2023/03/11 05:22:33;;;;;;;9.52;6.68;;;4.10;99.90;;;;;;5054923;28;20236;-76
2023/03/11 05:25:01;;;;;;;6.07;5.25;;;4.20;99.90;;;;;;5051804;28;20597;-76
2023/03/11 05:27:28;;;;;;;5.75;4.85;;;4.20;99.90;;;;;;5054931;28;20307;-74
2023/03/11 05:29:55;;;;;;;5.15;4.60;;;4.30;99.90;;;;;;5054275;28;20232;-76
2023/03/11 05:32:22;;;;;;;4.00;3.65;;;4.30;99.90;;;;;;5055686;28;20244;-75
2023/03/11 05:34:51;;;;;;;4.57;4.18;;;4.30;99.90;;;;;;5054894;28;20674;-76
2023/03/11 05:37:18;;;;;;;6.22;5.20;;;4.40;99.90;;;;;;5054670;28;20286;-74
2023/03/11 05:39:49;;;;;;;6.22;4.97;;;4.40;99.90;;;;;;5055145;28;20262;-75
2023/03/11 05:42:16;;;;;;;7.45;5.43;;;4.40;99.90;;;;;;5046266;28;20312;-75
2023/03/11 05:44:43;;;;;;;5.80;4.78;;;4.40;99.90;;;;;;5045209;28;20225;-76
2023/03/11 05:47:10;;;;;;;3.83;3.53;;;4.40;99.90;;;;;;5054976;28;20720;-73
2023/03/11 05:49:38;;;;;;;5.38;4.65;;;4.40;99.90;;;;;;5055295;28;20756;-74
2023/03/11 05:52:09;;;;;;;5.20;4.65;;;4.40;99.90;;;;;;5052568;28;20235;-74
2023/03/11 05:54:36;;;;;;;5.07;4.60;;;4.40;99.90;;;;;;5055574;28;20239;-77
2023/03/11 05:57:03;;;;;;;9.55;5.32;;;4.40;99.90;;;;;;5054942;28;20224;-74
2023/03/11 05:59:32;;;;;;;4.93;4.53;;;4.40;99.90;;;;;;5049004;28;20249;-74
2023/03/11 06:01:59;;;;;;;4.32;3.70;;;4.40;99.90;;;;;;5034851;28;20237;-74
2023/03/11 06:04:27;;;;;;;4.93;4.43;;;4.40;99.90;;;;;;5034590;28;20659;-73
2023/03/11 06:06:54;;;;;;;11.80;7.00;;;4.40;99.90;;;;;;5039509;28;20231;-76
2023/03/11 06:09:22;;;;;;;6.72;5.97;;;4.40;99.90;;;;;;5053873;28;20351;-77
2023/03/11 06:11:53;;;;;;;6.85;5.90;;;4.40;99.90;;;;;;5055174;28;20229;-75
2023/03/11 06:14:20;;;;;;;6.03;5.43;;;4.40;99.90;;;;;;5054785;28;20228;-75
2023/03/11 06:16:47;;;;;;;5.45;4.60;;;4.40;99.90;;;;;;5047350;28;20229;-74
2023/03/11 06:19:23;;;;;;;5.85;4.82;;;4.40;99.90;;;;;;5034207;28;20233;-75
2023/03/11 06:21:50;;;;;;;6.45;4.53;;;4.40;99.90;;;;;;5034307;28;20224;-74
2023/03/11 06:24:17;;;;;;;6.07;5.28;;;4.40;99.90;;;;;;5042611;28;20224;-77
2023/03/11 06:26:45;;;;;;;6.95;5.70;;;4.40;99.90;;;;;;5054226;28;20262;-76
2023/03/11 06:29:14;;;;;;;7.22;5.95;;;4.40;99.90;;;;;;5054040;28;20240;-76
2023/03/11 06:31:44;;;;;;;6.32;5.65;;;4.40;99.90;;;;;;5064834;28;20247;-76
2023/03/11 06:34:12;;;;;;;5.93;4.60;;;4.40;99.90;;;;;;5073917;28;20220;-74
2023/03/11 06:36:39;;;;;;;5.82;5.25;;;4.40;99.90;;;;;;5055221;28;20235;-76
2023/03/11 06:39:07;;;;;;;7.97;6.05;;;4.40;99.90;;;;;;5057538;28;20220;-76
2023/03/11 06:41:35;;;;;;;12.32;6.90;;;4.40;99.90;;;;;;5063388;28;20307;-77
2023/03/11 06:44:03;;;;;;;9.65;7.45;;;4.40;99.90;;;;;;5048362;28;20560;-74
2023/03/11 06:46:30;;;;;;;8.05;7.18;;;4.40;99.90;;;;;;5034291;28;20230;-74
2023/03/11 06:48:58;;;;;;;11.00;9.75;;;4.40;99.90;;;;;;5034022;28;20721;-77
2023/03/11 06:51:25;;;;;;;10.18;8.45;;;4.40;99.90;;;;;;5040761;28;20309;-76
2023/03/11 06:53:53;;;;;;;6.40;5.80;;;4.40;99.90;;;;;;5054251;28;20221;-75
2023/03/11 06:56:22;;;;;;;9.02;6.20;;;4.40;99.90;;;;;;5053235;28;20550;-74
2023/03/11 06:58:49;;;;;;;7.63;6.88;;;4.40;99.90;;;;;;5053468;28;20278;-75
2023/03/11 07:01:19;;;;;;;10.73;9.07;;;4.40;99.90;;;;;;5053881;28;20316;-74
2023/03/11 07:03:47;;;;;;;6.35;5.75;;;4.50;99.90;;;;;;5053834;28;20249;-74
2023/03/11 07:06:16;;;;;;;14.02;9.30;;;4.40;99.90;;;;;;5053183;28;20573;-74
2023/03/11 07:08:43;;;;;;;7.38;6.68;;;4.50;99.90;;;;;;5053368;28;20580;-74
2023/03/11 07:11:14;;;;;;;14.65;10.52;;;4.50;99.90;;;;;;5052637;28;20252;-74
2023/03/11 07:13:42;;;;;;;13.35;11.00;;;4.60;99.90;;;;;;5053266;28;20229;-74
2023/03/11 07:16:12;;;;;;;8.85;7.82;;;4.60;99.90;;;;;;5052876;28;20667;-77
2023/03/11 07:18:41;;;;;;;11.13;8.93;;;4.60;99.90;;;;;;5054364;28;20232;-76
2023/03/11 07:21:09;;;;;;;7.57;5.15;;;4.60;99.90;;;;;;5053141;28;20224;-76
2023/03/11 07:23:37;;;;;;;15.82;11.52;;;4.70;99.90;;;;;;5053666;28;20278;-76
2023/03/11 07:26:04;;;;;;;13.85;9.20;;;4.70;99.90;;;;;;5053844;28;20220;-74
2023/03/11 07:28:31;;;;;;;6.40;5.82;;;4.70;99.90;;;;;;5051883;28;20247;-74
2023/03/11 07:30:58;;;;;;;6.68;5.90;;;4.70;99.90;;;;;;5053253;28;20220;-73
2023/03/11 07:33:25;;;;;;;6.80;6.10;;;4.80;99.90;;;;;;5044276;28;20477;-73
2023/03/11 07:35:54;;;;;;;7.55;6.72;;;4.80;99.90;;;;;;5053733;28;20221;-74
2023/03/11 07:38:21;;;;;;;9.77;8.38;;;4.70;99.90;;;;;;5053031;28;20228;-74
2023/03/11 07:40:57;;;;;;;27.38;19.35;;;4.80;99.90;;;;;;5053919;28;20221;-74
2023/03/11 07:43:25;;;;;;;9.43;7.18;;;4.80;99.90;;;;;;5053455;28;20559;-74
2023/03/11 07:45:55;;;;;;;12.30;8.93;;;4.80;99.90;;;;;;5053883;28;20258;-74
2023/03/11 07:48:22;;;;;;;14.60;11.23;;;4.80;99.90;;;;;;5053318;28;20235;-76
2023/03/11 07:50:49;;;;;;;7.38;5.38;;;4.80;99.90;;;;;;5045173;28;20271;-76
2023/03/11 07:53:17;;;;;;;6.20;5.65;;;4.70;99.90;;;;;;5052291;28;20263;-74
2023/03/11 07:55:44;;;;;;;8.65;5.85;;;4.70;99.90;;;;;;5053478;28;20674;-76
2023/03/11 07:58:11;;;;;;;11.85;7.32;;;4.70;99.90;;;;;;5053587;28;20288;-76
2023/03/11 08:00:38;;;;;;;6.13;5.50;;;4.70;99.90;;;;;;5053021;28;20231;-74
2023/03/11 08:03:05;;;;;;;6.70;6.10;;;4.80;99.90;;;;;;5053332;28;20228;-73
2023/03/11 08:05:33;;;;;;;6.72;6.03;;;4.80;99.90;;;;;;5052821;28;20220;-76
2023/03/11 08:08:00;;;;;;;7.18;5.90;;;4.80;99.90;;;;;;5053524;28;20220;-76
2023/03/11 08:10:29;;;;;;;7.07;5.78;;;4.80;99.90;;;;;;5053367;28;20229;-76
2023/03/11 08:12:56;;;;;;;7.43;6.72;;;4.80;99.90;;;;;;5053524;28;20384;-74
2023/03/11 08:15:23;;;;;;;10.18;7.80;;;4.90;99.90;;;;;;5052926;28;20573;-74
2023/03/11 08:17:50;;;;;;;6.72;6.03;;;4.90;99.90;;;;;;5052939;28;20316;-74
2023/03/11 08:20:18;;;;;;;8.73;7.03;;;4.90;99.90;;;;;;5049795;28;20282;-73
2023/03/11 08:22:45;;;;;;;7.22;6.63;;;4.90;99.90;;;;;;5050642;28;20635;-74
2023/03/11 08:25:12;;;;;;;9.30;8.40;;;5.00;99.90;;;;;;5052321;28;20256;-74
2023/03/11 08:27:40;;;;;;;10.40;7.68;;;5.00;99.90;;;;;;5052812;28;20237;-73
2023/03/11 08:30:09;;;;;;;7.57;6.57;;;5.00;99.90;;;;;;5054740;28;20229;-74
2023/03/11 08:32:36;;;;;;;9.38;7.47;;;5.00;99.90;;;;;;5053322;28;20236;-73
2023/03/11 08:35:04;;;;;;;10.50;7.88;;;5.10;99.90;;;;;;5053533;28;20255;-76
2023/03/11 08:37:31;;;;;;;7.93;7.13;;;5.10;99.90;;;;;;5052989;28;20562;-75
2023/03/11 08:39:58;;;;;;;10.88;8.85;;;5.10;99.90;;;;;;5054751;28;20229;-74
2023/03/11 08:42:25;;;;;;;13.48;11.52;;;5.10;99.90;;;;;;5052894;28;20217;-75
2023/03/11 08:44:53;;;;;;;9.93;7.97;;;5.10;99.90;;;;;;5053121;28;20216;-75
2023/03/11 08:47:20;;;;;;;7.72;6.63;;;5.10;99.90;;;;;;5052899;28;20216;-72
2023/03/11 08:49:48;;;;;;;7.18;6.47;;;5.10;99.90;;;;;;5054972;28;20303;-75
2023/03/11 08:52:15;;;;;;;6.80;6.10;;;5.10;99.90;;;;;;5058278;28;20220;-75
2023/03/11 08:54:42;;;;;;;9.82;6.47;;;5.10;99.90;;;;;;5056333;28;20239;-73
2023/03/11 08:57:11;;;;;;;11.13;8.48;;;5.10;99.90;;;;;;5056919;28;20220;-74
2023/03/11 08:59:38;;;;;;;8.68;7.20;;;5.10;99.90;;;;;;5056593;28;20247;-75
2023/03/11 09:02:07;;;;;;;9.23;7.03;;;5.20;99.90;;;;;;5057322;28;20235;-75
2023/03/11 09:04:34;;;;;;;8.80;6.13;;;5.20;99.90;;;;;;5057078;28;20528;-76
2023/03/11 09:07:01;;;;;;;9.02;6.50;;;5.30;99.90;;;;;;5057621;28;20290;-76
2023/03/11 09:09:28;;;;;;;9.38;6.95;;;5.40;99.90;;;;;;5056703;28;20244;-77
2023/03/11 09:11:55;;;;;;;7.95;5.93;;;5.40;99.90;;;;;;5056808;28;20220;-74
2023/03/11 09:14:22;;;;;;;7.20;6.60;;;5.40;99.90;;;;;;5057050;28;20212;-74
2023/03/11 09:16:49;;;;;;;7.47;6.70;;;5.40;99.90;;;;;;5056659;28;20266;-74
2023/03/11 09:19:27;;;;;;;7.75;6.18;;;5.40;99.90;;;;;;5057172;28;20665;-74
2023/03/11 09:21:54;;;;;;;16.08;10.25;;;5.50;99.90;;;;;;5057046;28;20216;-73
2023/03/11 09:24:21;;;;;;;10.20;7.70;;;5.60;99.90;;;;;;5056233;28;20303;-73
2023/03/11 09:26:47;;;;;;;10.25;7.20;;;5.60;99.90;;;;;;5056904;28;20247;-74
2023/03/11 09:29:15;;;;;;;13.93;7.03;;;5.60;99.90;;;;;;5056569;28;20227;-75
2023/03/11 09:31:42;;;;;;;6.85;6.07;;;5.70;99.90;;;;;;5056236;28;20225;-75
2023/03/11 09:34:10;;;;;;;8.55;7.40;;;5.70;99.90;;;;;;5057355;28;20217;-76
2023/03/11 09:36:41;;;;;;;8.57;6.43;;;5.70;99.90;;;;;;5044824;28;20229;-74
2023/03/11 09:39:09;;;;;;;15.07;11.02;;;5.60;99.90;;;;;;5055831;28;20300;-76
2023/03/11 09:41:46;;;;;;;8.38;7.55;;;5.60;99.90;;;;;;5055820;28;20518;-74
2023/03/11 09:44:19;;;;;;;7.38;6.70;;;5.60;99.90;;;;;;5054463;28;20315;-74
2023/03/11 09:47:03;;;;;;;7.10;6.50;;;5.60;99.90;;;;;;5056038;28;20705;-76
2023/03/11 09:49:45;;;;;;;6.60;6.03;;;5.60;99.90;;;;;;5056408;28;20222;-75
2023/03/11 09:52:15;;;;;;;7.15;6.50;;;5.50;99.90;;;;;;5056162;28;20290;-75
2023/03/11 09:54:45;;;;;;;6.47;5.97;;;5.60;99.90;;;;;;5054980;28;20236;-76
2023/03/11 09:57:17;;;;;;;8.45;7.15;;;5.50;99.90;;;;;;5056139;28;20303;-76
2023/03/11 09:59:45;;;;;;;13.52;10.07;;;5.50;99.90;;;;;;5055667;28;20233;-74
2023/03/11 10:02:16;;;;;;;8.82;7.93;;;5.50;99.90;;;;;;5054179;28;20221;-74
2023/03/11 10:04:51;;;;;;;7.13;6.50;;;5.50;99.90;;;;;;5054996;28;20492;-76
2023/03/11 10:07:25;;;;;;;9.57;7.60;;;5.60;99.90;;;;;;5053734;28;20274;-73
2023/03/11 10:09:55;;;;;;;11.55;10.15;;;5.60;99.90;;;;;;5055006;28;20217;-73
2023/03/11 10:12:39;;;;;;;11.50;9.98;;;5.60;99.90;;;;;;5056369;28;20283;-75
2023/03/11 10:15:20;;;;;;;8.98;7.30;;;5.60;99.90;;;;;;5057197;28;20217;-75
2023/03/11 10:18:05;;;;;;;8.55;7.72;;;5.60;99.90;;;;;;5056764;28;20246;-76
2023/03/11 10:20:41;;;;;;;12.65;10.93;;;5.60;99.90;;;;;;5056607;28;20278;-75
2023/03/11 10:23:19;;;;;;;9.02;6.60;;;5.70;99.90;;;;;;5058085;28;20235;-74
2023/03/11 10:25:54;;;;;;;7.35;6.78;;;5.70;99.90;;;;;;5059105;28;20258;-77
2023/03/11 10:28:25;;;;;;;9.35;7.05;;;5.80;99.90;;;;;;5054104;28;20228;-74
2023/03/11 10:30:55;;;;;;;7.50;6.80;;;5.90;99.90;;;;;;5053951;28;20232;-74
2023/03/11 10:33:29;;;;;;;8.63;7.15;;;5.90;99.90;;;;;;5055007;28;20665;-76
2023/03/11 10:35:59;;;;;;;8.80;7.95;;;6.00;99.90;;;;;;5053737;28;20244;-76
2023/03/11 10:38:32;;;;;;;8.05;7.38;;;6.10;99.90;;;;;;5053931;28;20255;-77
2023/03/11 10:41:04;;;;;;;8.90;7.95;;;6.00;99.90;;;;;;5053949;28;20228;-76
2023/03/11 10:43:37;;;;;;;9.43;6.65;;;6.10;99.90;;;;;;5054042;28;20266;-74
2023/03/11 10:46:13;;;;;;;6.88;6.28;;;6.10;99.90;;;;;;5053657;28;20221;-74
2023/03/11 10:48:40;;;;;;;8.85;6.43;;;6.10;99.90;;;;;;5053559;28;20224;-74
2023/03/11 10:51:16;;;;;;;9.85;8.77;;;6.10;99.90;;;;;;5043601;28;20224;-74
2023/03/11 10:53:49;;;;;;;8.20;7.40;;;6.20;99.90;;;;;;5053634;28;20236;-76
2023/03/11 10:56:27;;;;;;;7.63;6.90;;;6.10;99.90;;;;;;5054221;28;20221;-76
2023/03/11 10:58:54;;;;;;;9.65;8.65;;;6.10;99.90;;;;;;5053130;28;20228;-76
2023/03/11 11:01:22;;;;;;;7.15;6.05;;;6.20;99.90;;;;;;5054049;28;20220;-74
2023/03/11 11:03:51;;;;;;;8.70;7.90;;;6.20;99.90;;;;;;5053657;28;20286;-76
2023/03/11 11:06:24;;;;;;;8.68;7.88;;;6.20;99.90;;;;;;5053673;28;20247;-74
2023/03/11 11:09:05;;;;;;;8.68;7.93;;;6.20;99.90;;;;;;5053002;28;20224;-76
2023/03/11 11:11:32;;;;;;;8.43;7.63;;;6.10;99.90;;;;;;5053735;28;20220;-76
2023/03/11 11:14:00;;;;;;;9.10;8.27;;;6.10;99.90;;;;;;5051589;28;20224;-75
2023/03/11 11:16:28;;;;;;;10.88;9.05;;;6.10;99.90;;;;;;5053435;28;20286;-73
2023/03/11 11:19:02;;;;;;;9.15;8.15;;;6.10;99.90;;;;;;5052128;28;20225;-74
2023/03/11 11:21:32;;;;;;;10.73;9.55;;;6.10;99.90;;;;;;5053702;28;20590;-74
2023/03/11 11:24:18;;;;;;;12.35;10.95;;;6.20;99.90;;;;;;5052708;28;20228;-74
2023/03/11 11:27:05;;;;;;;10.70;9.70;;;6.20;99.90;;;;;;5052836;28;20224;-74
2023/03/11 11:29:33;;;;;;;12.27;10.90;;;6.20;99.90;;;;;;5053215;28;20354;-75
2023/03/11 11:32:17;;;;;;;9.98;7.97;;;6.20;99.90;;;;;;5053411;28;20736;-74
2023/03/11 11:34:55;;;;;;;9.75;8.70;;;6.20;99.90;;;;;;5052885;28;20294;-74
2023/03/11 11:37:25;;;;;;;9.93;8.55;;;6.20;99.90;;;;;;5053045;28;20557;-74
2023/03/11 11:39:58;;;;;;;10.73;9.63;;;6.20;99.90;;;;;;5052696;28;20545;-75
2023/03/11 11:42:28;;;;;;;9.98;7.97;;;6.20;99.90;;;;;;5053691;28;20213;-74
2023/03/11 11:45:00;;;;;;;10.85;9.90;;;6.20;99.90;;;;;;5052906;28;20228;-74
2023/03/11 11:47:37;;;;;;;10.35;9.35;;;6.20;99.90;;;;;;5053036;28;20263;-74
2023/03/11 11:50:13;;;;;;;8.85;7.75;;;6.20;99.90;;;;;;5052906;28;20631;-76
2023/03/11 11:52:44;;;;;;;12.90;10.57;;;6.20;99.90;;;;;;5052533;28;20228;-74
2023/03/11 11:55:24;;;;;;;10.48;9.38;;;6.20;99.90;;;;;;5052737;28;20304;-74
2023/03/11 11:57:51;;;;;;;11.50;10.30;;;6.20;99.90;;;;;;5050225;28;20228;-76
2023/03/11 12:00:24;;;;;;;12.35;11.15;;;6.30;99.90;;;;;;5052801;28;20229;-76
2023/03/11 12:03:11;;;;;;;9.90;8.70;;;6.30;99.90;;;;;;5052286;28;20241;-76
2023/03/11 12:05:45;;;;;;;9.20;8.30;;;6.30;99.90;;;;;;5052491;28;20217;-74
2023/03/11 12:08:18;;;;;;;11.63;10.35;;;6.30;99.90;;;;;;5052188;28;20219;-74
2023/03/11 12:10:53;;;;;;;8.25;7.45;;;6.40;99.90;;;;;;5052305;28;20248;-76
2023/03/11 12:13:51;;;;;;;10.00;9.00;;;6.40;99.90;;;;;;5052184;28;20275;-76
2023/03/11 12:16:28;;;;;;;7.80;7.10;;;6.40;99.90;;;;;;5052272;28;20235;-76
2023/03/11 12:19:00;;;;;;;8.68;7.90;;;6.40;99.90;;;;;;5052959;28;20239;-77
2023/03/11 12:21:48;;;;;;;8.75;8.00;;;6.40;99.90;;;;;;5051811;28;20274;-77
2023/03/11 12:24:47;;;;;;;8.35;7.50;;;6.40;99.90;;;;;;5051788;28;20247;-76
2023/03/11 12:27:22;;;;;;;19.27;14.43;;;6.40;99.90;;;;;;5052659;28;20221;-73
2023/03/11 12:29:52;;;;;;;9.75;8.75;;;6.40;99.90;;;;;;5052525;28;20232;-74
2023/03/11 12:32:25;;;;;;;11.43;9.50;;;6.40;99.90;;;;;;5051936;28;20684;-75
2023/03/11 12:34:52;;;;;;;11.50;7.90;;;6.30;99.90;;;;;;5052712;28;20282;-76
2023/03/11 12:37:23;;;;;;;7.88;7.15;;;6.40;99.90;;;;;;5051569;28;20229;-76
2023/03/11 12:39:55;;;;;;;9.95;8.95;;;6.30;99.90;;;;;;5053081;28;20227;-74
2023/03/11 12:42:38;;;;;;;8.60;7.45;;;6.40;99.90;;;;;;5043800;28;20243;-76
2023/03/11 12:45:38;;;;;;;8.32;7.47;;;6.30;99.90;;;;;;5041370;28;20224;-76
2023/03/11 12:48:34;;;;;;;8.90;7.57;;;6.30;99.90;;;;;;5050649;28;20228;-75
2023/03/11 12:51:01;;;;;;;8.80;8.00;;;6.30;99.90;;;;;;5046068;28;20228;-74
2023/03/11 12:53:46;;;;;;;9.65;8.75;;;6.30;99.90;;;;;;5052848;28;20231;-76
2023/03/11 12:56:35;;;;;;;10.98;8.60;;;6.30;99.90;;;;;;5052561;28;20621;-76
2023/03/11 12:59:39;;;;;;;6.88;6.18;;;6.30;99.90;;;;;;5050999;28;20663;-75
2023/03/11 13:02:31;;;;;;;8.50;7.70;;;6.30;99.90;;;;;;5048942;28;20292;-77
2023/03/11 13:05:06;;;;;;;9.07;8.10;;;6.30;99.90;;;;;;5050530;28;20256;-76
2023/03/11 13:07:51;;;;;;;7.75;6.95;;;6.30;99.90;;;;;;5051844;28;20224;-77
2023/03/11 13:10:34;;;;;;;8.63;7.70;;;6.30;99.90;;;;;;5051896;28;20216;-75